sensor_id;sensor_type;location;lat;lon;timestamp;temperature;humidity
19805;DHT22;10062;51.052;13.756;2022-08-20T00:00:58;21.60;1.00
19805;DHT22;10062;51.052;13.756;2022-08-20T00:03:32;21.60;1.00
19805;DHT22;10062;51.052;13.756;2022-08-20T00:06:07;21.50;1.00
19805;DHT22;10062;51.052;13.756;2022-08-20T00:08:40;21.50;1.00
19805;DHT22;10062;51.052;13.756;2022-08-20T00:11:15;21.50;1.00
19805;DHT22;10062;51.052;13.756;2022-08-20T00:13:50;21.50;1.00
19805;DHT22;10062;51.052;13.756;2022-08-20T00:16:24;21.50;1.00
19805;DHT22;10062;51.052;13.756;2022-08-20T00:18:56;21.50;1.00
19805;DHT22;10062;51.052;13.756;2022-08-20T00:21:28;21.60;1.00
19805;DHT22;10062;51.052;13.756;2022-08-20T00:24:02;21.60;1.00
19805;DHT22;10062;51.052;13.756;2022-08-20T00:26:34;21.60;1.00
19805;DHT22;10062;51.052;13.756;2022-08-20T00:29:06;21.60;1.00
19805;DHT22;10062;51.052;13.756;2022-08-20T00:31:37;21.60;1.00
19805;DHT22;10062;51.052;13.756;2022-08-20T00:34:09;21.50;1.00
19805;DHT22;10062;51.052;13.756;2022-08-20T00:36:41;21.40;1.00
19805;DHT22;10062;51.052;13.756;2022-08-20T00:39:14;21.40;1.00
19805;DHT22;10062;51.052;13.756;2022-08-20T00:41:45;21.40;1.00
19805;DHT22;10062;51.052;13.756;2022-08-20T00:44:20;21.40;1.00
19805;DHT22;10062;51.052;13.756;2022-08-20T00:46:52;21.40;1.00
19805;DHT22;10062;51.052;13.756;2022-08-20T00:49:26;21.40;1.00
19805;DHT22;10062;51.052;13.756;2022-08-20T00:52:03;21.40;1.00
19805;DHT22;10062;51.052;13.756;2022-08-20T00:54:40;21.40;1.00
19805;DHT22;10062;51.052;13.756;2022-08-20T00:57:18;21.40;1.00
19805;DHT22;10062;51.052;13.756;2022-08-20T00:59:52;21.40;1.00
19805;DHT22;10062;51.052;13.756;2022-08-20T01:02:26;21.40;1.00
19805;DHT22;10062;51.052;13.756;2022-08-20T01:04:59;21.30;1.00
19805;DHT22;10062;51.052;13.756;2022-08-20T01:07:31;21.20;1.00
19805;DHT22;10062;51.052;13.756;2022-08-20T01:10:09;21.20;1.00
19805;DHT22;10062;51.052;13.756;2022-08-20T01:12:44;21.20;1.00
19805;DHT22;10062;51.052;13.756;2022-08-20T01:15:18;21.20;1.00
19805;DHT22;10062;51.052;13.756;2022-08-20T01:17:53;21.20;1.00
19805;DHT22;10062;51.052;13.756;2022-08-20T01:20:30;21.10;1.00
19805;DHT22;10062;51.052;13.756;2022-08-20T01:23:06;21.00;1.00
19805;DHT22;10062;51.052;13.756;2022-08-20T01:26:04;21.00;1.00
19805;DHT22;10062;51.052;13.756;2022-08-20T01:28:40;21.10;3.70
19805;DHT22;10062;51.052;13.756;2022-08-20T01:31:14;21.10;1.00
19805;DHT22;10062;51.052;13.756;2022-08-20T01:33:48;21.10;1.00
19805;DHT22;10062;51.052;13.756;2022-08-20T01:36:22;21.10;3.70
19805;DHT22;10062;51.052;13.756;2022-08-20T01:38:54;21.10;3.80
19805;DHT22;10062;51.052;13.756;2022-08-20T01:41:46;21.10;4.00
19805;DHT22;10062;51.052;13.756;2022-08-20T01:44:23;21.00;8.70
19805;DHT22;10062;51.052;13.756;2022-08-20T01:46:55;21.00;8.90
19805;DHT22;10062;51.052;13.756;2022-08-20T01:49:31;21.10;6.10
19805;DHT22;10062;51.052;13.756;2022-08-20T01:52:07;21.10;3.00
19805;DHT22;10062;51.052;13.756;2022-08-20T01:54:39;21.20;1.00
19805;DHT22;10062;51.052;13.756;2022-08-20T01:57:14;21.20;1.00
19805;DHT22;10062;51.052;13.756;2022-08-20T01:59:47;21.00;26.30
19805;DHT22;10062;51.052;13.756;2022-08-20T02:02:20;21.00;26.10
19805;DHT22;10062;51.052;13.756;2022-08-20T02:04:53;20.90;30.20
19805;DHT22;10062;51.052;13.756;2022-08-20T02:07:28;20.90;53.40
19805;DHT22;10062;51.052;13.756;2022-08-20T02:10:02;20.90;49.00
19805;DHT22;10062;51.052;13.756;2022-08-20T02:12:36;21.00;28.90
19805;DHT22;10062;51.052;13.756;2022-08-20T02:15:10;21.00;25.00
19805;DHT22;10062;51.052;13.756;2022-08-20T02:17:42;21.00;22.60
19805;DHT22;10062;51.052;13.756;2022-08-20T02:20:18;21.00;26.20
19805;DHT22;10062;51.052;13.756;2022-08-20T02:22:53;21.00;38.50
19805;DHT22;10062;51.052;13.756;2022-08-20T02:25:27;20.90;64.30
19805;DHT22;10062;51.052;13.756;2022-08-20T02:28:07;20.90;60.40
19805;DHT22;10062;51.052;13.756;2022-08-20T02:30:42;20.90;50.70
19805;DHT22;10062;51.052;13.756;2022-08-20T02:33:18;20.90;57.20
19805;DHT22;10062;51.052;13.756;2022-08-20T02:35:52;20.90;63.10
19805;DHT22;10062;51.052;13.756;2022-08-20T02:38:25;20.90;72.90
19805;DHT22;10062;51.052;13.756;2022-08-20T02:40:56;20.70;98.20
19805;DHT22;10062;51.052;13.756;2022-08-20T02:43:29;20.70;99.90
19805;DHT22;10062;51.052;13.756;2022-08-20T02:46:02;20.70;99.90
19805;DHT22;10062;51.052;13.756;2022-08-20T02:48:34;20.70;99.90
19805;DHT22;10062;51.052;13.756;2022-08-20T02:51:07;20.70;99.90
19805;DHT22;10062;51.052;13.756;2022-08-20T02:53:39;20.60;98.60
19805;DHT22;10062;51.052;13.756;2022-08-20T02:56:12;20.50;99.90
19805;DHT22;10062;51.052;13.756;2022-08-20T02:58:45;20.40;99.90
19805;DHT22;10062;51.052;13.756;2022-08-20T03:01:17;21.80;99.90
19805;DHT22;10062;51.052;13.756;2022-08-20T03:03:49;20.50;99.90
19805;DHT22;10062;51.052;13.756;2022-08-20T03:06:21;20.50;99.90
19805;DHT22;10062;51.052;13.756;2022-08-20T03:08:53;20.40;99.90
19805;DHT22;10062;51.052;13.756;2022-08-20T03:11:25;20.30;99.90
19805;DHT22;10062;51.052;13.756;2022-08-20T03:13:58;20.30;99.90
19805;DHT22;10062;51.052;13.756;2022-08-20T03:16:29;20.30;99.90
19805;DHT22;10062;51.052;13.756;2022-08-20T03:19:01;20.20;99.90
19805;DHT22;10062;51.052;13.756;2022-08-20T03:21:33;20.20;99.90
19805;DHT22;10062;51.052;13.756;2022-08-20T03:24:05;20.10;99.90
19805;DHT22;10062;51.052;13.756;2022-08-20T03:26:37;20.20;99.90
19805;DHT22;10062;51.052;13.756;2022-08-20T03:29:10;20.20;99.90
19805;DHT22;10062;51.052;13.756;2022-08-20T03:31:42;20.30;99.90
19805;DHT22;10062;51.052;13.756;2022-08-20T03:34:14;20.30;99.90
19805;DHT22;10062;51.052;13.756;2022-08-20T03:36:45;20.30;99.90
19805;DHT22;10062;51.052;13.756;2022-08-20T03:39:17;20.20;99.90
19805;DHT22;10062;51.052;13.756;2022-08-20T03:41:49;20.30;99.90
19805;DHT22;10062;51.052;13.756;2022-08-20T03:44:21;20.30;99.90
19805;DHT22;10062;51.052;13.756;2022-08-20T03:46:53;20.30;99.90
19805;DHT22;10062;51.052;13.756;2022-08-20T03:49:25;20.20;99.90
19805;DHT22;10062;51.052;13.756;2022-08-20T03:51:57;20.30;99.90
19805;DHT22;10062;51.052;13.756;2022-08-20T03:54:29;20.20;99.90
19805;DHT22;10062;51.052;13.756;2022-08-20T03:57:01;20.30;99.90
19805;DHT22;10062;51.052;13.756;2022-08-20T03:59:35;20.30;99.90
19805;DHT22;10062;51.052;13.756;2022-08-20T04:02:06;20.30;99.90
19805;DHT22;10062;51.052;13.756;2022-08-20T04:04:40;20.30;99.90
19805;DHT22;10062;51.052;13.756;2022-08-20T04:07:15;20.20;99.90
19805;DHT22;10062;51.052;13.756;2022-08-20T04:09:48;20.20;99.90
19805;DHT22;10062;51.052;13.756;2022-08-20T04:12:20;20.20;99.90
19805;DHT22;10062;51.052;13.756;2022-08-20T04:14:54;20.20;99.90
19805;DHT22;10062;51.052;13.756;2022-08-20T04:17:25;20.20;99.90
19805;DHT22;10062;51.052;13.756;2022-08-20T04:19:57;20.10;99.90
19805;DHT22;10062;51.052;13.756;2022-08-20T04:22:29;20.20;99.90
19805;DHT22;10062;51.052;13.756;2022-08-20T04:25:00;20.20;99.90
19805;DHT22;10062;51.052;13.756;2022-08-20T04:27:32;20.20;99.90
19805;DHT22;10062;51.052;13.756;2022-08-20T04:30:09;20.10;99.90
19805;DHT22;10062;51.052;13.756;2022-08-20T04:32:41;20.00;99.90
19805;DHT22;10062;51.052;13.756;2022-08-20T04:35:13;20.00;99.90
19805;DHT22;10062;51.052;13.756;2022-08-20T04:37:47;20.00;99.90
19805;DHT22;10062;51.052;13.756;2022-08-20T04:40:19;19.90;99.90
19805;DHT22;10062;51.052;13.756;2022-08-20T04:43:08;19.90;99.90
19805;DHT22;10062;51.052;13.756;2022-08-20T04:45:41;19.90;99.90
19805;DHT22;10062;51.052;13.756;2022-08-20T04:48:14;19.90;99.90
19805;DHT22;10062;51.052;13.756;2022-08-20T04:50:46;19.90;99.90
19805;DHT22;10062;51.052;13.756;2022-08-20T04:53:20;19.80;99.90
19805;DHT22;10062;51.052;13.756;2022-08-20T04:55:54;19.80;99.90
19805;DHT22;10062;51.052;13.756;2022-08-20T04:58:28;19.80;99.90
19805;DHT22;10062;51.052;13.756;2022-08-20T05:01:05;19.90;99.90
19805;DHT22;10062;51.052;13.756;2022-08-20T05:03:38;19.80;99.90
19805;DHT22;10062;51.052;13.756;2022-08-20T05:06:10;19.90;99.90
19805;DHT22;10062;51.052;13.756;2022-08-20T05:08:42;19.80;99.90
19805;DHT22;10062;51.052;13.756;2022-08-20T05:11:14;19.80;99.90
19805;DHT22;10062;51.052;13.756;2022-08-20T05:13:46;19.70;99.90
19805;DHT22;10062;51.052;13.756;2022-08-20T05:16:20;19.70;99.90
19805;DHT22;10062;51.052;13.756;2022-08-20T05:18:53;19.60;99.90
19805;DHT22;10062;51.052;13.756;2022-08-20T05:21:25;19.60;99.90
19805;DHT22;10062;51.052;13.756;2022-08-20T05:23:56;19.50;99.90
19805;DHT22;10062;51.052;13.756;2022-08-20T05:26:28;19.60;99.90
19805;DHT22;10062;51.052;13.756;2022-08-20T05:29:00;19.60;99.90
19805;DHT22;10062;51.052;13.756;2022-08-20T05:31:35;19.60;99.90
19805;DHT22;10062;51.052;13.756;2022-08-20T05:34:10;19.60;99.90
19805;DHT22;10062;51.052;13.756;2022-08-20T05:36:44;19.70;99.90
19805;DHT22;10062;51.052;13.756;2022-08-20T05:39:17;19.60;99.90
19805;DHT22;10062;51.052;13.756;2022-08-20T05:41:50;19.50;99.90
19805;DHT22;10062;51.052;13.756;2022-08-20T05:44:21;19.60;99.90
19805;DHT22;10062;51.052;13.756;2022-08-20T05:46:54;19.60;99.90
19805;DHT22;10062;51.052;13.756;2022-08-20T05:49:26;19.60;99.90
19805;DHT22;10062;51.052;13.756;2022-08-20T05:51:58;19.60;99.90
19805;DHT22;10062;51.052;13.756;2022-08-20T05:54:29;19.50;99.90
19805;DHT22;10062;51.052;13.756;2022-08-20T05:57:01;19.50;99.90
19805;DHT22;10062;51.052;13.756;2022-08-20T05:59:33;19.50;99.90
19805;DHT22;10062;51.052;13.756;2022-08-20T06:02:07;19.40;99.90
19805;DHT22;10062;51.052;13.756;2022-08-20T06:04:59;19.50;99.90
19805;DHT22;10062;51.052;13.756;2022-08-20T06:07:30;19.50;99.90
19805;DHT22;10062;51.052;13.756;2022-08-20T06:10:03;19.50;99.90
19805;DHT22;10062;51.052;13.756;2022-08-20T06:12:35;19.50;99.90
19805;DHT22;10062;51.052;13.756;2022-08-20T06:15:07;19.60;99.90
19805;DHT22;10062;51.052;13.756;2022-08-20T06:17:40;19.60;99.90
19805;DHT22;10062;51.052;13.756;2022-08-20T06:20:12;19.70;99.90
19805;DHT22;10062;51.052;13.756;2022-08-20T06:22:44;19.70;99.90
19805;DHT22;10062;51.052;13.756;2022-08-20T06:25:16;19.70;99.90
19805;DHT22;10062;51.052;13.756;2022-08-20T06:27:47;19.80;99.90
19805;DHT22;10062;51.052;13.756;2022-08-20T06:30:19;19.70;99.90
19805;DHT22;10062;51.052;13.756;2022-08-20T06:32:52;19.80;99.90
19805;DHT22;10062;51.052;13.756;2022-08-20T06:35:24;19.90;99.90
19805;DHT22;10062;51.052;13.756;2022-08-20T06:37:56;19.90;99.90
19805;DHT22;10062;51.052;13.756;2022-08-20T06:40:30;19.90;99.90
19805;DHT22;10062;51.052;13.756;2022-08-20T06:43:03;19.90;99.90
19805;DHT22;10062;51.052;13.756;2022-08-20T06:45:39;19.90;99.90
19805;DHT22;10062;51.052;13.756;2022-08-20T06:48:13;19.80;99.90
19805;DHT22;10062;51.052;13.756;2022-08-20T06:50:46;19.70;99.90
19805;DHT22;10062;51.052;13.756;2022-08-20T06:53:19;19.70;99.90
19805;DHT22;10062;51.052;13.756;2022-08-20T06:55:53;19.60;99.90
19805;DHT22;10062;51.052;13.756;2022-08-20T06:58:25;19.60;99.90
19805;DHT22;10062;51.052;13.756;2022-08-20T07:01:01;19.70;99.90
19805;DHT22;10062;51.052;13.756;2022-08-20T07:03:34;19.60;99.90
19805;DHT22;10062;51.052;13.756;2022-08-20T07:06:08;19.50;99.90
19805;DHT22;10062;51.052;13.756;2022-08-20T07:08:40;19.60;99.90
19805;DHT22;10062;51.052;13.756;2022-08-20T07:11:12;19.60;99.90
19805;DHT22;10062;51.052;13.756;2022-08-20T07:13:44;19.60;99.90
19805;DHT22;10062;51.052;13.756;2022-08-20T07:16:16;19.70;99.90
19805;DHT22;10062;51.052;13.756;2022-08-20T07:18:49;19.70;99.90
19805;DHT22;10062;51.052;13.756;2022-08-20T07:21:20;19.70;99.90
19805;DHT22;10062;51.052;13.756;2022-08-20T07:23:52;19.70;99.90
19805;DHT22;10062;51.052;13.756;2022-08-20T07:26:24;19.70;99.90
19805;DHT22;10062;51.052;13.756;2022-08-20T07:28:56;19.80;99.90
19805;DHT22;10062;51.052;13.756;2022-08-20T07:31:28;19.70;99.90
19805;DHT22;10062;51.052;13.756;2022-08-20T07:34:18;19.70;99.90
19805;DHT22;10062;51.052;13.756;2022-08-20T07:36:50;19.70;99.90
19805;DHT22;10062;51.052;13.756;2022-08-20T07:39:22;19.60;99.90
19805;DHT22;10062;51.052;13.756;2022-08-20T07:41:53;19.60;99.90
19805;DHT22;10062;51.052;13.756;2022-08-20T07:44:33;19.60;99.90
19805;DHT22;10062;51.052;13.756;2022-08-20T07:47:05;19.60;99.90
19805;DHT22;10062;51.052;13.756;2022-08-20T07:49:39;19.50;99.90
19805;DHT22;10062;51.052;13.756;2022-08-20T07:52:10;19.60;99.90
19805;DHT22;10062;51.052;13.756;2022-08-20T07:54:42;19.60;99.90
19805;DHT22;10062;51.052;13.756;2022-08-20T07:57:14;19.70;99.90
19805;DHT22;10062;51.052;13.756;2022-08-20T07:59:47;19.70;99.90
19805;DHT22;10062;51.052;13.756;2022-08-20T08:02:19;19.80;99.90
19805;DHT22;10062;51.052;13.756;2022-08-20T08:04:52;19.80;99.90
19805;DHT22;10062;51.052;13.756;2022-08-20T08:07:25;19.80;99.90
19805;DHT22;10062;51.052;13.756;2022-08-20T08:09:56;19.80;99.90
19805;DHT22;10062;51.052;13.756;2022-08-20T08:12:33;19.70;99.90
19805;DHT22;10062;51.052;13.756;2022-08-20T08:15:10;19.70;99.90
19805;DHT22;10062;51.052;13.756;2022-08-20T08:17:43;19.70;99.90
19805;DHT22;10062;51.052;13.756;2022-08-20T08:20:18;19.70;99.90
19805;DHT22;10062;51.052;13.756;2022-08-20T08:22:52;19.70;99.90
19805;DHT22;10062;51.052;13.756;2022-08-20T08:25:24;19.80;99.90
19805;DHT22;10062;51.052;13.756;2022-08-20T08:27:55;19.80;99.90
19805;DHT22;10062;51.052;13.756;2022-08-20T08:30:30;19.80;99.90
19805;DHT22;10062;51.052;13.756;2022-08-20T08:33:02;19.90;99.90
19805;DHT22;10062;51.052;13.756;2022-08-20T08:35:52;19.80;99.90
19805;DHT22;10062;51.052;13.756;2022-08-20T08:38:25;19.80;99.90
19805;DHT22;10062;51.052;13.756;2022-08-20T08:40:58;19.80;99.90
19805;DHT22;10062;51.052;13.756;2022-08-20T08:43:33;19.80;99.90
19805;DHT22;10062;51.052;13.756;2022-08-20T08:46:09;19.90;99.90
19805;DHT22;10062;51.052;13.756;2022-08-20T08:48:44;20.00;99.90
19805;DHT22;10062;51.052;13.756;2022-08-20T08:51:23;20.20;99.90
19805;DHT22;10062;51.052;13.756;2022-08-20T08:53:57;20.10;99.90
19805;DHT22;10062;51.052;13.756;2022-08-20T08:56:30;20.10;99.90
19805;DHT22;10062;51.052;13.756;2022-08-20T08:59:04;20.20;99.90
19805;DHT22;10062;51.052;13.756;2022-08-20T09:01:40;20.20;99.90
19805;DHT22;10062;51.052;13.756;2022-08-20T09:04:16;20.30;99.90
19805;DHT22;10062;51.052;13.756;2022-08-20T09:06:50;20.30;99.90
19805;DHT22;10062;51.052;13.756;2022-08-20T09:09:25;20.20;99.90
19805;DHT22;10062;51.052;13.756;2022-08-20T09:12:03;20.20;99.90
19805;DHT22;10062;51.052;13.756;2022-08-20T09:14:35;20.20;99.90
19805;DHT22;10062;51.052;13.756;2022-08-20T09:17:07;20.30;99.90
19805;DHT22;10062;51.052;13.756;2022-08-20T09:19:39;20.30;99.90
19805;DHT22;10062;51.052;13.756;2022-08-20T09:22:15;20.30;99.90
19805;DHT22;10062;51.052;13.756;2022-08-20T09:24:48;20.20;99.90
19805;DHT22;10062;51.052;13.756;2022-08-20T09:27:20;20.20;99.90
19805;DHT22;10062;51.052;13.756;2022-08-20T09:29:52;20.20;99.90
19805;DHT22;10062;51.052;13.756;2022-08-20T09:32:24;20.10;99.90
19805;DHT22;10062;51.052;13.756;2022-08-20T09:34:55;20.10;99.90
19805;DHT22;10062;51.052;13.756;2022-08-20T09:37:31;20.20;99.90
19805;DHT22;10062;51.052;13.756;2022-08-20T09:40:04;20.20;99.90
19805;DHT22;10062;51.052;13.756;2022-08-20T09:42:38;20.20;99.90
19805;DHT22;10062;51.052;13.756;2022-08-20T09:45:10;20.30;99.90
19805;DHT22;10062;51.052;13.756;2022-08-20T09:47:42;20.30;99.90
19805;DHT22;10062;51.052;13.756;2022-08-20T09:50:14;20.40;99.90
19805;DHT22;10062;51.052;13.756;2022-08-20T09:52:49;20.40;99.90
19805;DHT22;10062;51.052;13.756;2022-08-20T09:55:27;20.40;99.90
19805;DHT22;10062;51.052;13.756;2022-08-20T09:58:00;20.30;99.90
19805;DHT22;10062;51.052;13.756;2022-08-20T10:00:33;20.30;99.90
19805;DHT22;10062;51.052;13.756;2022-08-20T10:03:04;20.40;99.90
19805;DHT22;10062;51.052;13.756;2022-08-20T10:05:36;20.40;99.90
19805;DHT22;10062;51.052;13.756;2022-08-20T10:08:10;20.40;99.90
19805;DHT22;10062;51.052;13.756;2022-08-20T10:10:42;21.70;99.90
19805;DHT22;10062;51.052;13.756;2022-08-20T10:13:13;20.30;99.90
19805;DHT22;10062;51.052;13.756;2022-08-20T10:15:45;20.30;99.90
19805;DHT22;10062;51.052;13.756;2022-08-20T10:18:17;20.30;99.90
19805;DHT22;10062;51.052;13.756;2022-08-20T10:20:48;20.30;99.90
19805;DHT22;10062;51.052;13.756;2022-08-20T10:23:21;20.30;99.90
19805;DHT22;10062;51.052;13.756;2022-08-20T10:25:53;20.20;99.90
19805;DHT22;10062;51.052;13.756;2022-08-20T10:28:25;20.20;99.90
19805;DHT22;10062;51.052;13.756;2022-08-20T10:30:56;20.30;99.90
19805;DHT22;10062;51.052;13.756;2022-08-20T10:33:28;20.30;99.90
19805;DHT22;10062;51.052;13.756;2022-08-20T10:36:05;20.30;99.90
19805;DHT22;10062;51.052;13.756;2022-08-20T10:38:38;20.30;99.90
19805;DHT22;10062;51.052;13.756;2022-08-20T10:41:10;20.40;99.90
19805;DHT22;10062;51.052;13.756;2022-08-20T10:43:42;20.40;99.90
19805;DHT22;10062;51.052;13.756;2022-08-20T10:46:14;20.40;99.90
19805;DHT22;10062;51.052;13.756;2022-08-20T10:48:45;20.40;99.90
19805;DHT22;10062;51.052;13.756;2022-08-20T10:51:17;20.40;99.90
19805;DHT22;10062;51.052;13.756;2022-08-20T10:53:50;20.40;99.90
19805;DHT22;10062;51.052;13.756;2022-08-20T10:56:22;20.40;99.90
19805;DHT22;10062;51.052;13.756;2022-08-20T10:58:54;20.50;99.90
19805;DHT22;10062;51.052;13.756;2022-08-20T11:01:26;20.50;99.90
19805;DHT22;10062;51.052;13.756;2022-08-20T11:03:57;20.40;99.90
19805;DHT22;10062;51.052;13.756;2022-08-20T11:06:29;20.40;99.90
19805;DHT22;10062;51.052;13.756;2022-08-20T11:09:02;20.40;99.90
19805;DHT22;10062;51.052;13.756;2022-08-20T11:11:34;20.50;99.90
19805;DHT22;10062;51.052;13.756;2022-08-20T11:14:05;20.50;99.90
19805;DHT22;10062;51.052;13.756;2022-08-20T11:16:37;20.50;99.90
19805;DHT22;10062;51.052;13.756;2022-08-20T11:19:09;20.50;99.90
19805;DHT22;10062;51.052;13.756;2022-08-20T11:21:40;20.50;99.90
19805;DHT22;10062;51.052;13.756;2022-08-20T11:24:14;20.40;99.90
19805;DHT22;10062;51.052;13.756;2022-08-20T11:26:46;20.40;99.90
19805;DHT22;10062;51.052;13.756;2022-08-20T11:29:19;20.40;99.90
19805;DHT22;10062;51.052;13.756;2022-08-20T11:31:52;20.50;99.90
19805;DHT22;10062;51.052;13.756;2022-08-20T11:34:23;20.40;99.90
19805;DHT22;10062;51.052;13.756;2022-08-20T11:36:55;20.50;99.90
19805;DHT22;10062;51.052;13.756;2022-08-20T11:39:29;20.50;99.90
19805;DHT22;10062;51.052;13.756;2022-08-20T11:42:01;20.60;99.90
19805;DHT22;10062;51.052;13.756;2022-08-20T11:44:33;20.40;99.90
19805;DHT22;10062;51.052;13.756;2022-08-20T11:47:06;20.50;99.90
19805;DHT22;10062;51.052;13.756;2022-08-20T11:49:38;20.40;99.90
19805;DHT22;10062;51.052;13.756;2022-08-20T11:52:10;20.40;99.90
19805;DHT22;10062;51.052;13.756;2022-08-20T11:54:43;20.40;99.90
19805;DHT22;10062;51.052;13.756;2022-08-20T11:57:19;20.40;99.90
19805;DHT22;10062;51.052;13.756;2022-08-20T11:59:52;20.40;99.90
19805;DHT22;10062;51.052;13.756;2022-08-20T12:02:24;20.40;99.90
19805;DHT22;10062;51.052;13.756;2022-08-20T12:04:56;20.40;99.90
19805;DHT22;10062;51.052;13.756;2022-08-20T12:07:28;20.40;99.90
19805;DHT22;10062;51.052;13.756;2022-08-20T12:10:01;20.40;99.90
19805;DHT22;10062;51.052;13.756;2022-08-20T12:12:32;20.40;99.90
19805;DHT22;10062;51.052;13.756;2022-08-20T12:15:06;20.40;99.90
19805;DHT22;10062;51.052;13.756;2022-08-20T12:17:38;20.30;99.90
19805;DHT22;10062;51.052;13.756;2022-08-20T12:20:13;20.40;99.90
19805;DHT22;10062;51.052;13.756;2022-08-20T12:22:45;20.40;99.90
19805;DHT22;10062;51.052;13.756;2022-08-20T12:25:18;20.40;99.90
19805;DHT22;10062;51.052;13.756;2022-08-20T12:27:50;20.40;99.90
19805;DHT22;10062;51.052;13.756;2022-08-20T12:30:23;20.30;99.90
19805;DHT22;10062;51.052;13.756;2022-08-20T12:32:54;20.30;99.90
19805;DHT22;10062;51.052;13.756;2022-08-20T12:35:26;20.30;99.90
19805;DHT22;10062;51.052;13.756;2022-08-20T12:38:02;20.30;99.90
19805;DHT22;10062;51.052;13.756;2022-08-20T12:40:35;20.40;99.90
19805;DHT22;10062;51.052;13.756;2022-08-20T12:43:07;20.40;99.90
19805;DHT22;10062;51.052;13.756;2022-08-20T12:45:39;20.40;99.90
19805;DHT22;10062;51.052;13.756;2022-08-20T12:48:12;20.40;99.90
19805;DHT22;10062;51.052;13.756;2022-08-20T12:50:44;20.40;99.90
19805;DHT22;10062;51.052;13.756;2022-08-20T12:53:16;20.40;99.90
19805;DHT22;10062;51.052;13.756;2022-08-20T12:55:49;20.40;99.90
19805;DHT22;10062;51.052;13.756;2022-08-20T12:58:21;20.40;99.90
19805;DHT22;10062;51.052;13.756;2022-08-20T13:00:52;20.40;99.90
19805;DHT22;10062;51.052;13.756;2022-08-20T13:03:24;20.40;99.90
19805;DHT22;10062;51.052;13.756;2022-08-20T13:05:59;20.40;99.90
19805;DHT22;10062;51.052;13.756;2022-08-20T13:08:31;20.40;99.90
19805;DHT22;10062;51.052;13.756;2022-08-20T13:11:04;20.40;99.90
19805;DHT22;10062;51.052;13.756;2022-08-20T13:13:36;20.40;99.90
19805;DHT22;10062;51.052;13.756;2022-08-20T13:16:07;20.40;99.90
19805;DHT22;10062;51.052;13.756;2022-08-20T13:18:39;20.40;99.90
19805;DHT22;10062;51.052;13.756;2022-08-20T13:21:11;20.40;99.90
19805;DHT22;10062;51.052;13.756;2022-08-20T13:23:43;20.40;99.90
19805;DHT22;10062;51.052;13.756;2022-08-20T13:26:16;20.50;99.90
19805;DHT22;10062;51.052;13.756;2022-08-20T13:28:47;20.60;99.90
19805;DHT22;10062;51.052;13.756;2022-08-20T13:31:19;20.60;99.90
19805;DHT22;10062;51.052;13.756;2022-08-20T13:33:51;20.60;99.90
19805;DHT22;10062;51.052;13.756;2022-08-20T13:36:22;20.70;99.90
19805;DHT22;10062;51.052;13.756;2022-08-20T13:38:54;20.60;99.90
19805;DHT22;10062;51.052;13.756;2022-08-20T13:41:27;20.60;99.90
19805;DHT22;10062;51.052;13.756;2022-08-20T13:43:59;20.60;99.90
19805;DHT22;10062;51.052;13.756;2022-08-20T13:46:30;20.60;99.90
19805;DHT22;10062;51.052;13.756;2022-08-20T13:49:02;20.70;99.90
19805;DHT22;10062;51.052;13.756;2022-08-20T13:51:34;20.80;99.90
19805;DHT22;10062;51.052;13.756;2022-08-20T13:54:05;20.90;99.90
19805;DHT22;10062;51.052;13.756;2022-08-20T13:56:38;21.00;99.90
19805;DHT22;10062;51.052;13.756;2022-08-20T13:59:10;20.90;99.90
19805;DHT22;10062;51.052;13.756;2022-08-20T14:01:41;21.00;99.90
19805;DHT22;10062;51.052;13.756;2022-08-20T14:04:13;21.00;99.90
19805;DHT22;10062;51.052;13.756;2022-08-20T14:06:45;21.00;99.90
19805;DHT22;10062;51.052;13.756;2022-08-20T14:09:16;20.90;99.90
19805;DHT22;10062;51.052;13.756;2022-08-20T14:11:49;20.90;99.90
19805;DHT22;10062;51.052;13.756;2022-08-20T14:14:21;20.90;99.90
19805;DHT22;10062;51.052;13.756;2022-08-20T14:16:53;20.90;99.90
19805;DHT22;10062;51.052;13.756;2022-08-20T14:19:24;20.70;99.90
19805;DHT22;10062;51.052;13.756;2022-08-20T14:21:56;20.50;99.90
19805;DHT22;10062;51.052;13.756;2022-08-20T14:24:28;20.40;99.90
19805;DHT22;10062;51.052;13.756;2022-08-20T14:27:01;20.40;99.90
19805;DHT22;10062;51.052;13.756;2022-08-20T14:29:34;20.40;99.90
19805;DHT22;10062;51.052;13.756;2022-08-20T14:32:06;20.20;99.90
19805;DHT22;10062;51.052;13.756;2022-08-20T14:34:38;20.00;99.90
19805;DHT22;10062;51.052;13.756;2022-08-20T14:37:13;19.80;99.90
19805;DHT22;10062;51.052;13.756;2022-08-20T14:39:47;19.80;99.90
19805;DHT22;10062;51.052;13.756;2022-08-20T14:42:21;20.00;99.90
19805;DHT22;10062;51.052;13.756;2022-08-20T14:44:53;20.10;88.60
19805;DHT22;10062;51.052;13.756;2022-08-20T14:47:27;20.10;71.50
19805;DHT22;10062;51.052;13.756;2022-08-20T14:50:01;20.00;87.20
19805;DHT22;10062;51.052;13.756;2022-08-20T14:52:34;19.90;92.60
19805;DHT22;10062;51.052;13.756;2022-08-20T14:55:09;19.50;99.90
19805;DHT22;10062;51.052;13.756;2022-08-20T14:57:43;19.40;99.90
19805;DHT22;10062;51.052;13.756;2022-08-20T15:00:18;19.40;99.90
19805;DHT22;10062;51.052;13.756;2022-08-20T15:02:50;19.40;99.90
19805;DHT22;10062;51.052;13.756;2022-08-20T15:05:22;19.40;99.90
19805;DHT22;10062;51.052;13.756;2022-08-20T15:07:55;19.40;99.90
19805;DHT22;10062;51.052;13.756;2022-08-20T15:10:30;19.50;99.90
19805;DHT22;10062;51.052;13.756;2022-08-20T15:13:03;19.50;99.90
19805;DHT22;10062;51.052;13.756;2022-08-20T15:15:34;19.50;99.90
19805;DHT22;10062;51.052;13.756;2022-08-20T15:18:06;19.50;99.90
19805;DHT22;10062;51.052;13.756;2022-08-20T15:20:38;19.70;99.90
19805;DHT22;10062;51.052;13.756;2022-08-20T15:23:10;19.60;99.90
19805;DHT22;10062;51.052;13.756;2022-08-20T15:25:41;19.70;99.90
19805;DHT22;10062;51.052;13.756;2022-08-20T15:28:14;19.80;99.90
19805;DHT22;10062;51.052;13.756;2022-08-20T15:30:46;19.80;99.90
19805;DHT22;10062;51.052;13.756;2022-08-20T15:33:18;19.80;99.90
19805;DHT22;10062;51.052;13.756;2022-08-20T15:35:50;19.80;99.90
19805;DHT22;10062;51.052;13.756;2022-08-20T15:38:21;19.80;99.90
19805;DHT22;10062;51.052;13.756;2022-08-20T15:40:54;19.90;99.90
19805;DHT22;10062;51.052;13.756;2022-08-20T15:43:27;19.90;99.90
19805;DHT22;10062;51.052;13.756;2022-08-20T15:46:00;19.90;99.90
19805;DHT22;10062;51.052;13.756;2022-08-20T15:48:36;19.90;99.90
19805;DHT22;10062;51.052;13.756;2022-08-20T15:51:17;20.00;99.90
19805;DHT22;10062;51.052;13.756;2022-08-20T15:53:56;20.00;99.90